Aberdeen, Ohio
Current Conditions -  °F | °C
As of 1:15 AM on Sunday 26 Oct 2014 (Local Time) from KFGX Reporting Station
Clear Clear  
Wind Chill: 14°   Ceiling: Unl
Heat Index: 14°   Visibility: 10mi
Dew Point: 12°   Wind: 5mph
Humidity: 91%   Direction: 280°W
Pressure: 29.95"   Gusts: NA
Location:  38.66°N, 83.76°W
Report Text: KFGX 260515Z AUTO 28004KT 10SM CLR 14/12 A2995 RMK AO2 T01350120
Loading
Personal Weather Stations






























Interactive Weather Map
Tropical Storm Tracking
New forecast layout! Learn more

10-Day Weather Forecast

Advertisements
Track Severe Weather on mobile